Time;durP1;ratioP1;P1;durP2;ratioP2;P2;SDS_P1;SDS_P2;PMS_P1;PMS_P2;Temp;Humidity;BMP_temperature;BMP_pressure;BME280_temperature;BME280_humidity;BME280_pressure;Samples;Min_cycle;Max_cycle;Signal;HPM_P1;HPM_P2
2023/07/26 00:00:11;;;;;;;6.15;3.35;;;11.20;99.90;;;;;;5005368;28;20029;-66
2023/07/26 00:02:36;;;;;;;3.97;2.70;;;11.20;99.90;;;;;;5002515;28;20509;-66
2023/07/26 00:05:02;;;;;;;6.05;2.58;;;11.20;99.90;;;;;;4999730;28;20350;-66
2023/07/26 00:07:28;;;;;;;6.00;3.63;;;11.20;99.90;;;;;;5008578;28;20749;-67
2023/07/26 00:09:53;;;;;;;8.57;3.80;;;11.30;99.90;;;;;;5008432;28;20052;-65
2023/07/26 00:12:19;;;;;;;5.80;3.50;;;11.40;99.90;;;;;;5002636;28;20026;-66
2023/07/26 00:14:44;;;;;;;6.15;3.88;;;11.50;99.90;;;;;;5003075;28;20019;-66
2023/07/26 00:17:10;;;;;;;8.38;3.92;;;11.40;99.90;;;;;;5006628;28;20022;-67
2023/07/26 00:19:35;;;;;;;7.25;3.20;;;11.40;99.90;;;;;;5009421;28;20026;-67
2023/07/26 00:22:01;;;;;;;9.38;3.08;;;11.40;99.90;;;;;;5006583;28;20125;-67
2023/07/26 00:24:26;;;;;;;5.70;3.05;;;11.40;99.90;;;;;;5006529;28;20046;-66
2023/07/26 00:26:52;;;;;;;5.75;3.60;;;11.40;99.90;;;;;;4992295;28;20133;-66
2023/07/26 00:29:18;;;;;;;4.55;3.40;;;11.40;99.90;;;;;;4991451;28;20447;-67
2023/07/26 00:31:43;;;;;;;6.38;3.08;;;11.40;99.90;;;;;;5007584;28;20018;-66
2023/07/26 00:34:09;;;;;;;8.25;4.25;;;11.40;99.90;;;;;;5009124;28;20057;-67
2023/07/26 00:36:34;;;;;;;7.40;3.90;;;11.50;99.90;;;;;;5007563;28;20095;-65
2023/07/26 00:39:00;;;;;;;7.45;4.47;;;11.50;99.90;;;;;;5009348;28;20038;-66
2023/07/26 00:41:26;;;;;;;7.25;4.32;;;11.60;99.90;;;;;;5008668;28;20030;-66
2023/07/26 00:43:51;;;;;;;7.22;4.20;;;11.70;99.90;;;;;;5020243;28;20036;-66
2023/07/26 00:46:18;;;;;;;7.65;4.53;;;11.70;99.90;;;;;;5015653;28;20045;-65
2023/07/26 00:48:43;;;;;;;9.23;4.82;;;11.70;99.90;;;;;;5010768;28;20038;-66
2023/07/26 00:51:09;;;;;;;7.28;4.22;;;11.70;99.90;;;;;;5008319;28;20125;-65
2023/07/26 00:53:35;;;;;;;6.22;4.30;;;11.70;99.90;;;;;;5008142;28;20054;-67
2023/07/26 00:56:02;;;;;;;8.68;5.00;;;11.70;99.90;;;;;;5005803;28;20049;-66
2023/07/26 00:58:28;;;;;;;5.78;4.45;;;11.70;99.90;;;;;;5007048;28;20487;-67
2023/07/26 01:00:54;;;;;;;6.88;4.97;;;11.60;99.90;;;;;;5004785;28;20144;-66
2023/07/26 01:03:19;;;;;;;6.00;4.68;;;11.60;99.90;;;;;;5009440;28;20120;-66
2023/07/26 01:05:54;;;;;;;11.43;4.53;;;11.60;99.90;;;;;;5006749;28;20029;-67
2023/07/26 01:08:57;;;;;;;5.85;4.45;;;11.60;99.90;;;;;;5006288;28;20106;-65
2023/07/26 01:11:26;;;;;;;5.88;4.03;;;11.70;99.90;;;;;;5008636;28;20380;-66
2023/07/26 01:13:58;;;;;;;8.93;4.07;;;11.70;99.90;;;;;;4993769;28;20026;-66
2023/07/26 01:16:25;;;;;;;5.88;3.97;;;11.80;99.90;;;;;;5008574;28;20476;-66
2023/07/26 01:18:50;;;;;;;6.63;4.15;;;11.80;99.90;;;;;;5009795;28;20021;-66
2023/07/26 01:21:16;;;;;;;5.72;4.45;;;11.80;99.90;;;;;;5008074;28;20457;-67
2023/07/26 01:23:42;;;;;;;8.00;4.45;;;11.80;99.90;;;;;;5008858;28;20046;-66
2023/07/26 01:26:07;;;;;;;8.77;4.75;;;11.80;99.90;;;;;;5008010;28;20109;-66
2023/07/26 01:28:33;;;;;;;7.97;5.32;;;11.80;99.90;;;;;;4987313;28;20410;-66
2023/07/26 01:31:00;;;;;;;7.68;4.57;;;11.70;99.90;;;;;;5008211;28;20037;-66
2023/07/26 01:33:27;;;;;;;7.32;4.63;;;11.70;99.90;;;;;;5008780;28;20094;-65
2023/07/26 01:35:53;;;;;;;6.07;4.72;;;11.70;99.90;;;;;;5000150;28;20065;-66
2023/07/26 01:38:20;;;;;;;10.55;5.28;;;11.70;99.90;;;;;;5008267;28;20025;-66
2023/07/26 01:40:47;;;;;;;9.57;5.20;;;11.70;99.90;;;;;;5008003;28;20702;-66
2023/07/26 01:43:13;;;;;;;8.77;5.10;;;11.70;99.90;;;;;;5006427;28;20079;-66
2023/07/26 01:45:38;;;;;;;10.90;5.10;;;11.70;99.90;;;;;;5006633;28;20034;-66
2023/07/26 01:48:04;;;;;;;7.38;4.90;;;11.80;99.90;;;;;;5011556;28;20069;-66
2023/07/26 01:50:30;;;;;;;7.82;4.97;;;11.80;99.90;;;;;;4996571;28;20034;-67
2023/07/26 01:52:55;;;;;;;12.10;4.75;;;11.80;99.90;;;;;;5010865;28;20491;-65
2023/07/26 01:55:21;;;;;;;5.40;4.20;;;11.80;99.90;;;;;;5011744;28;20037;-66
2023/07/26 01:57:46;;;;;;;5.97;4.47;;;11.80;99.90;;;;;;5011899;28;20154;-67
2023/07/26 02:00:12;;;;;;;6.65;4.22;;;11.80;99.90;;;;;;5008086;28;20064;-66
2023/07/26 02:02:38;;;;;;;5.93;4.50;;;11.90;99.90;;;;;;5012249;28;20506;-66
2023/07/26 02:05:04;;;;;;;5.85;4.57;;;11.80;99.90;;;;;;5010791;28;20026;-66
2023/07/26 02:07:29;;;;;;;8.68;4.70;;;11.80;99.90;;;;;;5000059;28;20037;-67
2023/07/26 02:09:55;;;;;;;5.82;4.35;;;11.80;99.90;;;;;;5011368;28;20036;-66
2023/07/26 02:12:21;;;;;;;10.13;5.30;;;11.80;99.90;;;;;;5012953;28;20675;-66
2023/07/26 02:14:46;;;;;;;7.70;4.70;;;11.80;99.90;;;;;;4990443;28;20030;-66
2023/07/26 02:17:12;;;;;;;7.82;5.10;;;11.80;99.90;;;;;;5009857;28;20065;-67
2023/07/26 02:19:38;;;;;;;6.75;4.40;;;11.80;99.90;;;;;;5006588;28;20075;-66
2023/07/26 02:22:03;;;;;;;7.82;4.72;;;11.80;99.90;;;;;;5011085;28;20449;-66
2023/07/26 02:24:29;;;;;;;7.78;4.70;;;11.80;99.90;;;;;;5006472;28;20037;-67
2023/07/26 02:26:55;;;;;;;7.68;4.95;;;11.80;99.90;;;;;;5010436;28;20041;-67
2023/07/26 02:29:20;;;;;;;9.15;4.68;;;11.80;99.90;;;;;;4991732;28;20052;-66
2023/07/26 02:31:46;;;;;;;8.27;5.15;;;11.80;99.90;;;;;;5001066;28;20076;-65
2023/07/26 02:34:12;;;;;;;11.23;5.00;;;11.80;99.90;;;;;;5009969;28;20034;-65
2023/07/26 02:36:38;;;;;;;6.88;5.20;;;11.80;99.90;;;;;;5007667;28;20032;-65
2023/07/26 02:39:04;;;;;;;7.00;5.10;;;11.90;99.90;;;;;;5007536;28;20029;-65
2023/07/26 02:41:29;;;;;;;8.57;5.03;;;11.80;99.90;;;;;;4999924;28;20141;-65
2023/07/26 02:43:55;;;;;;;15.07;5.35;;;11.80;99.90;;;;;;5010781;28;20033;-66
2023/07/26 02:46:20;;;;;;;6.50;4.78;;;11.80;99.90;;;;;;5010967;28;20033;-65
2023/07/26 02:48:46;;;;;;;7.68;5.00;;;11.80;99.90;;;;;;5011493;28;20092;-65
2023/07/26 02:51:11;;;;;;;7.28;5.28;;;11.80;99.90;;;;;;5009920;28;20034;-65
2023/07/26 02:53:38;;;;;;;6.82;4.65;;;11.80;99.90;;;;;;5009045;28;20025;-67
2023/07/26 02:56:04;;;;;;;10.55;5.63;;;11.80;99.90;;;;;;5009199;28;20348;-65
2023/07/26 02:58:30;;;;;;;9.40;5.57;;;11.80;99.90;;;;;;5004090;28;20030;-65
2023/07/26 03:00:56;;;;;;;11.48;5.28;;;11.80;99.90;;;;;;5009178;28;20022;-65
2023/07/26 03:03:21;;;;;;;8.38;5.22;;;11.80;99.90;;;;;;5009146;28;20040;-65
2023/07/26 03:05:47;;;;;;;9.65;5.68;;;11.80;99.90;;;;;;5011218;28;20113;-65
2023/07/26 03:08:12;;;;;;;7.25;5.13;;;11.90;99.90;;;;;;5008665;28;20030;-66
2023/07/26 03:10:38;;;;;;;8.10;4.68;;;11.80;99.90;;;;;;5010197;28;20403;-66
2023/07/26 03:13:04;;;;;;;10.95;5.28;;;11.80;99.90;;;;;;5010219;28;20014;-66
2023/07/26 03:15:30;;;;;;;7.53;5.40;;;11.80;99.90;;;;;;5004881;28;20018;-65
2023/07/26 03:17:56;;;;;;;12.30;5.13;;;11.80;99.90;;;;;;5010522;28;20068;-65
2023/07/26 03:20:21;;;;;;;6.38;5.05;;;11.80;99.90;;;;;;4991388;28;20057;-65
2023/07/26 03:22:47;;;;;;;7.90;5.35;;;11.80;99.90;;;;;;5010183;28;20030;-65
2023/07/26 03:25:12;;;;;;;7.40;5.43;;;11.70;99.90;;;;;;5008085;28;20541;-67
2023/07/26 03:27:38;;;;;;;10.93;5.63;;;11.70;99.90;;;;;;5010409;28;20038;-66
2023/07/26 03:30:04;;;;;;;13.93;5.30;;;11.70;99.90;;;;;;4988949;28;20038;-66
2023/07/26 03:32:30;;;;;;;11.13;5.25;;;11.70;99.90;;;;;;5009453;28;20041;-67
2023/07/26 03:34:55;;;;;;;8.30;6.03;;;11.70;99.90;;;;;;5000767;28;20059;-67
2023/07/26 03:37:21;;;;;;;7.75;5.22;;;11.70;99.90;;;;;;5000247;28;20502;-66
2023/07/26 03:39:47;;;;;;;9.90;6.22;;;11.70;99.90;;;;;;4997909;28;20061;-66
2023/07/26 03:42:12;;;;;;;8.88;5.60;;;11.70;99.90;;;;;;4994660;28;20038;-66
2023/07/26 03:44:38;;;;;;;9.30;5.50;;;11.70;99.90;;;;;;4999533;28;20109;-66
2023/07/26 03:47:03;;;;;;;7.65;5.15;;;11.80;99.90;;;;;;5005911;28;20035;-66
2023/07/26 03:49:29;;;;;;;9.13;5.13;;;11.70;99.90;;;;;;5005930;28;20080;-65
2023/07/26 03:51:54;;;;;;;11.85;5.97;;;11.80;99.90;;;;;;5001056;28;20025;-65
2023/07/26 03:54:20;;;;;;;10.00;5.90;;;11.70;99.90;;;;;;5006481;28;20022;-66
2023/07/26 03:56:45;;;;;;;6.50;5.35;;;11.80;99.90;;;;;;5002773;28;20029;-66
2023/07/26 03:59:11;;;;;;;8.10;5.15;;;11.80;99.90;;;;;;5004453;28;20092;-66
2023/07/26 04:01:37;;;;;;;8.75;5.35;;;11.80;99.90;;;;;;5000715;28;20061;-66
2023/07/26 04:04:02;;;;;;;9.70;5.40;;;11.80;99.90;;;;;;5005372;28;20034;-66
2023/07/26 04:06:28;;;;;;;10.82;5.18;;;11.80;99.90;;;;;;5007328;28;20065;-66
2023/07/26 04:08:55;;;;;;;7.07;5.63;;;11.80;99.90;;;;;;5010009;28;20022;-66
2023/07/26 04:11:21;;;;;;;6.90;5.50;;;11.80;99.90;;;;;;5008300;28;20049;-66
2023/07/26 04:13:46;;;;;;;8.73;5.90;;;11.80;99.90;;;;;;5010085;28;20026;-66
2023/07/26 04:16:13;;;;;;;8.38;6.00;;;11.90;99.90;;;;;;5009447;28;20038;-66
2023/07/26 04:18:38;;;;;;;7.55;5.13;;;11.90;99.90;;;;;;5008905;28;20480;-66
2023/07/26 04:21:04;;;;;;;12.18;5.55;;;11.90;99.90;;;;;;5007912;28;20049;-66
2023/07/26 04:23:30;;;;;;;10.88;5.28;;;12.00;99.90;;;;;;4991388;28;20026;-64
2023/07/26 04:25:55;;;;;;;9.40;5.22;;;12.10;99.90;;;;;;5008502;28;20446;-66
2023/07/26 04:28:21;;;;;;;7.25;4.25;;;12.20;99.90;;;;;;5009280;28;20045;-66
2023/07/26 04:30:48;;;;;;;10.27;5.40;;;12.20;99.90;;;;;;4967591;28;20042;-66
2023/07/26 04:33:14;;;;;;;8.68;4.60;;;12.30;99.90;;;;;;4994903;28;20030;-66
2023/07/26 04:35:40;;;;;;;6.70;4.63;;;12.30;99.90;;;;;;4988708;28;20017;-65
2023/07/26 04:38:05;;;;;;;7.38;4.15;;;12.40;99.90;;;;;;5006714;28;20032;-66
2023/07/26 04:40:31;;;;;;;5.93;4.50;;;12.30;99.90;;;;;;5002112;28;20462;-66
2023/07/26 04:42:57;;;;;;;7.40;4.13;;;12.40;99.90;;;;;;5000041;28;20092;-65
2023/07/26 04:45:22;;;;;;;5.25;3.80;;;12.30;99.90;;;;;;5002973;28;20076;-66
2023/07/26 04:47:48;;;;;;;6.07;3.67;;;12.40;99.90;;;;;;5006694;28;20030;-65
2023/07/26 04:50:13;;;;;;;5.68;3.50;;;12.40;99.90;;;;;;5004424;28;20045;-66
2023/07/26 04:52:39;;;;;;;9.75;3.17;;;12.40;99.90;;;;;;4995078;28;20030;-66
2023/07/26 04:55:08;;;;;;;5.63;3.40;;;12.40;99.90;;;;;;5002236;28;20021;-67
2023/07/26 04:57:38;;;;;;;4.82;3.42;;;12.50;99.90;;;;;;5002026;28;20084;-66
2023/07/26 05:00:04;;;;;;;6.65;4.07;;;12.50;99.90;;;;;;5002938;28;20056;-64
2023/07/26 05:02:30;;;;;;;8.55;4.75;;;12.50;99.90;;;;;;5002462;28;20058;-67
2023/07/26 05:04:55;;;;;;;6.15;3.70;;;12.60;99.90;;;;;;5001917;28;20061;-65
2023/07/26 05:07:21;;;;;;;7.03;3.90;;;12.70;99.90;;;;;;5008112;28;20080;-67
2023/07/26 05:09:47;;;;;;;8.35;3.95;;;12.60;99.90;;;;;;5006269;28;20076;-66
2023/07/26 05:12:12;;;;;;;24.17;4.35;;;12.60;99.90;;;;;;5008319;28;20475;-66
2023/07/26 05:14:41;;;;;;;6.28;3.85;;;12.50;99.90;;;;;;5007684;28;20143;-65
2023/07/26 05:17:07;;;;;;;5.50;3.60;;;12.50;99.90;;;;;;5012853;28;20090;-66
2023/07/26 05:19:32;;;;;;;7.70;4.10;;;12.50;99.90;;;;;;4996087;28;20121;-63
2023/07/26 05:21:58;;;;;;;5.80;3.35;;;12.50;99.90;;;;;;5012576;28;20044;-65
2023/07/26 05:24:23;;;;;;;7.65;3.42;;;12.50;99.90;;;;;;5008214;28;20037;-66
2023/07/26 05:26:49;;;;;;;5.50;3.80;;;12.60;99.90;;;;;;5014947;28;20037;-64
2023/07/26 05:29:14;;;;;;;4.95;3.78;;;12.70;99.90;;;;;;4997317;28;20043;-67
2023/07/26 05:31:40;;;;;;;5.90;4.07;;;12.80;99.90;;;;;;5012763;28;20032;-66
2023/07/26 05:34:06;;;;;;;8.48;3.58;;;12.90;99.90;;;;;;5014891;28;20033;-64
2023/07/26 05:36:31;;;;;;;6.43;2.60;;;13.10;99.90;;;;;;5006205;28;20018;-66
2023/07/26 05:38:57;;;;;;;4.75;3.08;;;13.30;99.90;;;;;;4991223;28;20431;-66
2023/07/26 05:41:26;;;;;;;6.13;3.53;;;13.60;99.90;;;;;;5006755;28;20038;-66
2023/07/26 05:43:52;;;;;;;5.28;2.97;;;13.90;99.90;;;;;;4997908;28;20557;-65
2023/07/26 05:46:17;;;;;;;4.53;2.90;;;14.10;99.90;;;;;;5011071;28;20050;-65
2023/07/26 05:48:43;;;;;;;4.47;2.80;;;14.10;99.90;;;;;;5015339;28;20148;-67
2023/07/26 05:51:08;;;;;;;3.53;2.60;;;14.20;99.90;;;;;;4987036;28;20067;-66
2023/07/26 05:53:34;;;;;;;3.90;2.70;;;14.10;99.90;;;;;;5004346;28;20026;-65
2023/07/26 05:55:59;;;;;;;7.03;2.60;;;14.10;99.90;;;;;;5009482;28;20387;-66
2023/07/26 05:58:25;;;;;;;4.28;2.75;;;14.20;99.90;;;;;;5013241;28;20136;-66
2023/07/26 06:00:51;;;;;;;6.93;3.38;;;14.60;99.90;;;;;;5004440;28;20033;-66
2023/07/26 06:03:16;;;;;;;3.90;2.75;;;14.70;99.90;;;;;;5002697;28;20165;-66
2023/07/26 06:05:42;;;;;;;2.92;2.38;;;14.70;99.90;;;;;;5011753;28;20026;-66
2023/07/26 06:08:07;;;;;;;3.90;2.22;;;14.80;99.90;;;;;;5011200;28;20042;-66
2023/07/26 06:10:33;;;;;;;5.25;2.38;;;15.00;99.90;;;;;;5013282;28;20032;-66
2023/07/26 06:12:59;;;;;;;5.60;2.90;;;15.20;99.90;;;;;;5015868;28;20095;-67
2023/07/26 06:15:24;;;;;;;6.55;2.58;;;15.30;99.90;;;;;;5014422;28;20029;-67
2023/07/26 06:17:50;;;;;;;4.32;2.13;;;15.50;99.90;;;;;;5014263;28;20017;-65
2023/07/26 06:20:15;;;;;;;3.40;2.30;;;15.90;99.90;;;;;;5012173;28;20483;-66
2023/07/26 06:22:41;;;;;;;5.20;2.05;;;16.10;99.90;;;;;;5013855;28;20030;-66
2023/07/26 06:25:07;;;;;;;4.47;2.28;;;16.30;99.90;;;;;;5013318;28;20018;-66
2023/07/26 06:27:33;;;;;;;2.55;2.10;;;16.90;99.90;;;;;;5012684;28;21788;-66
2023/07/26 06:29:58;;;;;;;3.78;2.13;;;17.70;99.90;;;;;;4994496;28;20105;-66
2023/07/26 06:32:24;;;;;;;3.15;1.73;;;18.10;99.90;;;;;;5011187;28;20026;-66
2023/07/26 06:34:49;;;;;;;3.35;1.88;;;18.50;99.90;;;;;;5010227;28;20026;-65
2023/07/26 06:37:15;;;;;;;3.58;1.50;;;18.70;99.90;;;;;;5009773;28;20025;-67
2023/07/26 06:39:41;;;;;;;7.50;1.55;;;18.50;99.90;;;;;;5009592;28;20054;-67
2023/07/26 06:42:07;;;;;;;4.22;1.73;;;18.80;99.90;;;;;;5007300;28;20030;-65
2023/07/26 06:44:32;;;;;;;4.45;1.42;;;18.70;99.90;;;;;;5007345;28;20021;-66
2023/07/26 06:46:58;;;;;;;4.22;1.60;;;18.90;99.90;;;;;;5011305;28;20042;-66
2023/07/26 06:49:23;;;;;;;2.25;1.38;;;18.60;99.90;;;;;;5009363;28;20037;-67
2023/07/26 06:51:52;;;;;;;5.32;1.63;;;19.50;99.90;;;;;;5001398;28;20121;-66
2023/07/26 06:54:18;;;;;;;2.63;1.48;;;20.40;99.90;;;;;;5003274;28;20030;-65
2023/07/26 06:56:43;;;;;;;6.70;1.50;;;20.90;99.90;;;;;;5010623;28;20407;-66
2023/07/26 06:59:12;;;;;;;3.65;1.10;;;22.10;99.90;;;;;;5008178;28;20065;-65
2023/07/26 07:01:37;;;;;;;2.88;1.40;;;22.60;99.10;;;;;;5000171;28;20029;-67
2023/07/26 07:04:03;;;;;;;2.45;1.58;;;23.20;98.30;;;;;;5010836;28;20116;-66
2023/07/26 07:06:29;;;;;;;3.55;1.60;;;23.80;97.00;;;;;;5001862;28;20578;-66
2023/07/26 07:08:56;;;;;;;6.35;1.50;;;23.60;95.00;;;;;;5010843;28;20036;-66
2023/07/26 07:11:21;;;;;;;7.35;1.90;;;23.20;96.20;;;;;;5006523;28;20095;-66
2023/07/26 07:13:47;;;;;;;6.90;1.85;;;22.60;97.60;;;;;;4998851;28;20042;-66
2023/07/26 07:16:13;;;;;;;2.97;1.45;;;22.10;98.70;;;;;;5008433;28;20065;-66
2023/07/26 07:18:39;;;;;;;3.03;1.88;;;21.90;98.80;;;;;;5007290;28;20025;-67
2023/07/26 07:21:04;;;;;;;5.60;1.67;;;21.60;99.40;;;;;;5004042;28;20022;-66
2023/07/26 07:23:30;;;;;;;2.97;1.73;;;21.20;99.90;;;;;;5002882;28;20035;-65
2023/07/26 07:25:57;;;;;;;5.93;2.67;;;21.50;99.90;;;;;;5006550;28;20022;-66
2023/07/26 07:28:23;;;;;;;3.47;1.50;;;21.40;99.40;;;;;;5005205;28;20377;-66
2023/07/26 07:30:49;;;;;;;4.45;2.10;;;21.40;99.40;;;;;;4989307;28;20046;-66
2023/07/26 07:33:15;;;;;;;3.65;2.15;;;21.70;97.80;;;;;;5011029;28;20080;-67
2023/07/26 07:35:41;;;;;;;2.70;1.80;;;21.90;98.50;;;;;;5008265;28;20656;-66
2023/07/26 07:38:07;;;;;;;9.27;2.30;;;22.50;97.90;;;;;;5005634;28;20045;-66
2023/07/26 07:40:32;;;;;;;3.83;1.70;;;23.00;95.00;;;;;;5008837;28;20030;-66
2023/07/26 07:42:58;;;;;;;7.57;2.45;;;23.30;95.90;;;;;;5009882;28;20025;-67
2023/07/26 07:45:23;;;;;;;2.95;2.08;;;24.20;93.10;;;;;;5008552;28;20050;-67
2023/07/26 07:47:49;;;;;;;5.65;2.08;;;26.20;90.60;;;;;;5010370;28;20026;-67
2023/07/26 07:50:15;;;;;;;5.82;2.20;;;26.40;85.70;;;;;;5008633;28;20057;-66
2023/07/26 07:52:41;;;;;;;4.20;1.83;;;25.80;85.00;;;;;;5005859;28;20033;-67
2023/07/26 07:55:07;;;;;;;7.25;2.10;;;25.70;87.20;;;;;;5008477;28;20025;-66
2023/07/26 07:57:33;;;;;;;6.68;2.20;;;24.80;86.70;;;;;;5004289;28;20033;-67
2023/07/26 07:59:58;;;;;;;5.80;2.30;;;25.30;87.30;;;;;;5008622;28;20040;-66
2023/07/26 08:02:24;;;;;;;7.10;2.45;;;24.70;86.70;;;;;;5007014;28;20034;-66
2023/07/26 08:04:49;;;;;;;5.63;2.03;;;25.20;85.00;;;;;;5002437;28;20114;-66
2023/07/26 08:07:15;;;;;;;5.72;2.25;;;25.90;88.50;;;;;;5003591;28;20131;-67
2023/07/26 08:09:41;;;;;;;6.32;2.38;;;26.40;82.30;;;;;;5009298;28;20034;-67
2023/07/26 08:12:07;;;;;;;4.13;2.08;;;26.10;81.60;;;;;;5007278;28;20034;-67
2023/07/26 08:14:33;;;;;;;6.47;2.47;;;24.80;85.50;;;;;;5004946;28;20113;-66
2023/07/26 08:16:59;;;;;;;4.13;2.67;;;24.00;88.40;;;;;;5004699;28;20138;-66
2023/07/26 08:19:25;;;;;;;4.70;2.90;;;23.40;90.60;;;;;;5004040;28;20033;-67
2023/07/26 08:21:50;;;;;;;4.60;2.88;;;22.70;91.30;;;;;;4997500;28;20034;-66
2023/07/26 08:24:16;;;;;;;6.38;2.72;;;22.90;92.60;;;;;;5003329;28;20042;-66
2023/07/26 08:26:42;;;;;;;4.05;2.42;;;23.00;91.80;;;;;;4998713;28;20054;-67
2023/07/26 08:29:07;;;;;;;5.10;2.50;;;22.70;91.70;;;;;;5002212;28;20282;-66
2023/07/26 08:31:33;;;;;;;6.13;2.28;;;22.70;92.80;;;;;;4987588;28;20077;-65
2023/07/26 08:33:58;;;;;;;5.20;2.58;;;23.40;91.30;;;;;;5001704;28;20454;-66
2023/07/26 08:36:24;;;;;;;2.58;1.92;;;24.10;90.70;;;;;;5002101;28;20029;-66
2023/07/26 08:38:51;;;;;;;5.45;2.10;;;23.40;90.60;;;;;;5008268;28;20137;-66
2023/07/26 08:41:17;;;;;;;5.82;2.25;;;24.60;90.30;;;;;;5008099;28;20096;-67
2023/07/26 08:43:44;;;;;;;5.85;2.72;;;24.80;85.50;;;;;;5007163;28;20080;-66
2023/07/26 08:46:10;;;;;;;6.50;2.53;;;24.30;85.60;;;;;;5000870;28;20029;-67
2023/07/26 08:48:37;;;;;;;9.07;2.08;;;24.50;87.50;;;;;;5006461;28;20041;-65
2023/07/26 08:51:05;;;;;;;5.07;2.13;;;25.30;84.00;;;;;;4989732;28;20033;-66
2023/07/26 08:53:31;;;;;;;8.05;2.13;;;25.10;82.10;;;;;;5000609;28;20109;-65
2023/07/26 08:55:56;;;;;;;5.55;2.60;;;25.00;82.50;;;;;;5003422;28;20148;-66
2023/07/26 08:58:22;;;;;;;7.40;2.55;;;25.90;83.00;;;;;;5003373;28;20037;-64
2023/07/26 09:00:48;;;;;;;2.97;1.90;;;26.60;78.80;;;;;;5003961;28;20042;-66
2023/07/26 09:03:14;;;;;;;4.07;2.10;;;27.30;78.60;;;;;;5009588;28;20129;-66
2023/07/26 09:05:40;;;;;;;5.00;1.98;;;27.30;75.60;;;;;;4993124;28;20116;-64
2023/07/26 09:08:05;;;;;;;2.70;1.77;;;27.70;75.60;;;;;;5003869;28;20026;-65
2023/07/26 09:10:31;;;;;;;6.20;2.42;;;27.50;74.30;;;;;;5005021;28;20037;-66
2023/07/26 09:13:14;;;;;;;6.75;2.45;;;26.70;76.50;;;;;;4987319;28;20022;-66
2023/07/26 09:15:41;;;;;;;5.43;2.58;;;25.60;77.80;;;;;;4996949;28;20022;-66
2023/07/26 09:18:12;;;;;;;5.30;2.55;;;24.30;82.30;;;;;;4998840;28;20130;-66
2023/07/26 09:20:37;;;;;;;7.68;2.40;;;23.50;86.80;;;;;;5001068;28;20018;-65
2023/07/26 09:23:07;;;;;;;6.53;2.67;;;23.10;87.70;;;;;;4999868;28;20088;-65
2023/07/26 09:25:44;;;;;;;3.28;2.25;;;22.90;89.10;;;;;;5004115;28;20034;-65
2023/07/26 09:28:14;;;;;;;5.65;2.63;;;22.60;90.70;;;;;;5008441;28;20034;-66
2023/07/26 09:30:43;;;;;;;6.50;2.25;;;22.30;90.40;;;;;;5006490;28;20112;-66
2023/07/26 09:33:11;;;;;;;6.82;2.10;;;22.40;91.30;;;;;;4993217;28;20046;-67
2023/07/26 09:35:47;;;;;;;5.15;2.03;;;22.50;91.00;;;;;;5003211;28;20030;-66
2023/07/26 09:38:15;;;;;;;6.85;1.80;;;22.50;90.50;;;;;;5007447;28;20030;-66
2023/07/26 09:40:40;;;;;;;4.05;1.73;;;22.70;91.00;;;;;;5009166;28;20038;-66
2023/07/26 09:43:06;;;;;;;5.70;2.28;;;23.50;88.80;;;;;;5006075;28;20030;-66
2023/07/26 09:45:32;;;;;;;8.80;2.03;;;23.80;87.60;;;;;;5007937;28;20026;-65
2023/07/26 09:48:09;;;;;;;4.63;1.55;;;24.70;88.30;;;;;;5008966;28;20053;-66
2023/07/26 09:50:35;;;;;;;4.53;1.48;;;25.10;81.10;;;;;;5008168;28;20037;-66
2023/07/26 09:53:04;;;;;;;4.20;2.58;;;25.20;77.30;;;;;;5008048;28;20018;-67
2023/07/26 09:55:30;;;;;;;3.92;1.80;;;25.30;76.30;;;;;;5007431;28;20110;-66
2023/07/26 09:57:57;;;;;;;4.72;1.63;;;25.40;76.10;;;;;;5004679;28;20088;-66
2023/07/26 10:00:28;;;;;;;2.55;1.33;;;26.00;76.90;;;;;;5005334;28;20026;-67
2023/07/26 10:02:59;;;;;;;10.32;1.85;;;26.40;70.80;;;;;;5007372;28;20152;-66
2023/07/26 10:05:26;;;;;;;2.50;1.40;;;26.40;71.00;;;;;;5009726;28;20923;-66
2023/07/26 10:07:53;;;;;;;9.38;1.80;;;25.80;74.00;;;;;;5009946;28;20030;-66
2023/07/26 10:10:20;;;;;;;4.68;2.05;;;25.10;75.00;;;;;;5009185;28;20038;-67
2023/07/26 10:12:46;;;;;;;4.90;1.83;;;24.10;78.00;;;;;;5009974;28;20036;-67
2023/07/26 10:15:16;;;;;;;9.27;2.08;;;23.20;82.00;;;;;;5008718;28;20489;-66
2023/07/26 10:17:47;;;;;;;6.03;1.95;;;22.70;88.50;;;;;;5009516;28;20053;-67
2023/07/26 10:20:14;;;;;;;4.25;2.15;;;22.30;88.60;;;;;;5007074;28;20069;-66
2023/07/26 10:22:42;;;;;;;5.78;2.03;;;22.20;90.40;;;;;;5002952;28;20101;-66
2023/07/26 10:25:08;;;;;;;3.78;1.80;;;22.90;90.80;;;;;;5008902;28;20491;-67
2023/07/26 10:27:35;;;;;;;4.28;1.70;;;23.40;87.20;;;;;;5009776;28;20030;-65
2023/07/26 10:30:01;;;;;;;4.25;1.95;;;23.60;87.60;;;;;;5002524;28;20034;-67
2023/07/26 10:32:26;;;;;;;4.82;1.75;;;23.90;84.10;;;;;;4989948;28;20452;-66
2023/07/26 10:34:56;;;;;;;5.45;2.00;;;23.60;81.70;;;;;;5006965;28;20060;-66
2023/07/26 10:37:23;;;;;;;4.65;1.70;;;23.50;80.60;;;;;;5006128;28;20097;-66
2023/07/26 10:39:49;;;;;;;5.30;1.98;;;23.20;80.50;;;;;;5006483;28;20490;-66
2023/07/26 10:42:26;;;;;;;3.67;1.70;;;22.70;81.20;;;;;;4996648;28;20026;-66
2023/07/26 10:44:54;;;;;;;6.63;1.83;;;22.50;85.50;;;;;;5005918;28;20510;-66
2023/07/26 10:47:20;;;;;;;8.63;2.03;;;22.20;91.00;;;;;;5002076;28;20034;-66
2023/07/26 10:49:46;;;;;;;6.70;1.95;;;21.70;95.30;;;;;;5009774;28;20083;-66
2023/07/26 10:52:12;;;;;;;6.05;2.30;;;20.60;99.10;;;;;;5007742;28;20037;-67
2023/07/26 10:54:43;;;;;;;5.05;2.45;;;19.90;99.90;;;;;;5007348;28;20025;-67
2023/07/26 10:57:26;;;;;;;7.60;2.10;;;19.40;99.90;;;;;;5005916;28;20044;-66
2023/07/26 10:59:59;;;;;;;4.55;2.55;;;19.10;99.90;;;;;;5003458;28;20116;-66
2023/07/26 11:02:37;;;;;;;4.38;2.40;;;18.60;99.90;;;;;;5012276;28;20034;-66
2023/07/26 11:05:05;;;;;;;4.32;2.38;;;18.10;99.90;;;;;;5002161;28;20030;-67
2023/07/26 11:07:55;;;;;;;7.90;2.78;;;17.90;99.90;;;;;;5006863;28;20030;-66
2023/07/26 11:10:31;;;;;;;3.92;3.15;;;17.50;99.90;;;;;;5002703;28;20037;-67
2023/07/26 11:13:13;;;;;;;6.95;3.20;;;17.40;99.90;;;;;;5007571;28;20025;-65
2023/07/26 11:15:43;;;;;;;5.18;3.17;;;17.40;99.90;;;;;;5008488;28;20029;-66
2023/07/26 11:18:10;;;;;;;6.25;3.10;;;17.40;99.90;;;;;;5006192;28;20050;-68
2023/07/26 11:20:55;;;;;;;4.85;2.78;;;17.20;99.90;;;;;;5006742;28;20080;-66
2023/07/26 11:23:25;;;;;;;7.47;3.40;;;17.60;99.90;;;;;;4983171;28;20030;-64
2023/07/26 11:25:53;;;;;;;8.48;3.88;;;17.90;99.90;;;;;;5003531;28;20491;-65
2023/07/26 11:28:19;;;;;;;7.50;3.78;;;18.40;99.90;;;;;;5004328;28;20038;-67
2023/07/26 11:30:49;;;;;;;7.43;3.65;;;18.70;99.90;;;;;;5005990;28;20696;-66
2023/07/26 11:33:44;;;;;;;6.57;2.80;;;18.70;99.90;;;;;;4985520;28;20512;-67
2023/07/26 11:36:19;;;;;;;5.07;2.83;;;19.00;99.90;;;;;;4985973;28;20038;-67
2023/07/26 11:38:45;;;;;;;7.00;3.10;;;18.90;99.90;;;;;;5007272;28;20053;-66
2023/07/26 11:41:17;;;;;;;8.43;2.55;;;19.20;99.90;;;;;;4990743;28;20030;-68
2023/07/26 11:43:43;;;;;;;6.95;2.08;;;18.80;99.90;;;;;;5007808;28;20054;-67
2023/07/26 11:46:09;;;;;;;4.65;2.40;;;18.60;99.90;;;;;;5005012;28;20092;-65
2023/07/26 11:48:35;;;;;;;5.03;2.88;;;18.10;99.90;;;;;;5009564;28;20037;-67
2023/07/26 11:51:03;;;;;;;3.90;2.50;;;17.30;99.90;;;;;;5004902;28;20158;-67
2023/07/26 11:53:41;;;;;;;7.13;3.45;;;16.80;99.90;;;;;;5007420;28;20022;-68
2023/07/26 11:56:07;;;;;;;6.57;3.30;;;16.40;99.90;;;;;;5009383;28;20052;-65
2023/07/26 11:58:33;;;;;;;9.07;3.85;;;16.30;99.90;;;;;;5007973;28;20521;-66
2023/07/26 12:00:59;;;;;;;5.60;3.20;;;16.20;99.90;;;;;;5006857;28;20075;-66
2023/07/26 12:03:26;;;;;;;7.97;3.42;;;16.30;99.90;;;;;;5005256;28;20029;-67
2023/07/26 12:05:53;;;;;;;5.35;3.33;;;16.40;99.90;;;;;;5004107;28;20026;-66
2023/07/26 12:08:20;;;;;;;5.07;3.13;;;16.60;99.90;;;;;;4988493;28;20530;-69
2023/07/26 12:10:47;;;;;;;4.95;2.95;;;17.00;99.90;;;;;;5001411;28;20133;-68
2023/07/26 12:13:23;;;;;;;7.30;2.88;;;17.20;99.90;;;;;;5001728;28;20049;-67
2023/07/26 12:16:00;;;;;;;3.63;2.45;;;17.80;99.90;;;;;;5006845;28;20017;-66
2023/07/26 12:18:26;;;;;;;4.32;2.97;;;18.30;99.90;;;;;;5004034;28;20476;-65
2023/07/26 12:21:08;;;;;;;4.80;2.60;;;18.80;99.90;;;;;;5003292;28;20140;-66
2023/07/26 12:23:59;;;;;;;3.55;2.22;;;18.60;99.90;;;;;;4996950;28;20030;-64
2023/07/26 12:26:30;;;;;;;3.15;2.35;;;18.70;99.90;;;;;;5006986;28;20026;-66
2023/07/26 12:28:57;;;;;;;8.20;2.88;;;18.80;99.90;;;;;;5006600;28;20731;-66
2023/07/26 12:31:28;;;;;;;6.22;2.72;;;19.10;99.90;;;;;;5003213;28;20049;-66
2023/07/26 12:33:55;;;;;;;2.65;2.38;;;19.00;99.90;;;;;;4966892;28;20042;-66
2023/07/26 12:36:21;;;;;;;5.28;2.40;;;19.00;99.90;;;;;;5002047;28;20022;-65
2023/07/26 12:38:47;;;;;;;4.75;2.80;;;19.00;99.90;;;;;;5007759;28;20018;-67
2023/07/26 12:41:13;;;;;;;5.05;3.50;;;19.10;99.90;;;;;;4998555;28;20033;-67
2023/07/26 12:43:39;;;;;;;3.90;2.42;;;18.80;99.90;;;;;;5000166;28;20025;-66